sensor_id;sensor_type;location;lat;lon;timestamp;pressure;altitude;pressure_sealevel;temperature;humidity
65758;BME280;52495;52.208;5.158;2023-06-26T00:02:14;101082.03;;;25.93;53.85
65758;BME280;52495;52.208;5.158;2023-06-26T00:04:43;101082.25;;;25.89;54.05
65758;BME280;52495;52.208;5.158;2023-06-26T00:07:10;101082.63;;;25.85;54.02
65758;BME280;52495;52.208;5.158;2023-06-26T00:09:37;101077.69;;;25.80;54.64
65758;BME280;52495;52.208;5.158;2023-06-26T00:12:04;101078.91;;;25.76;54.64
65758;BME280;52495;52.208;5.158;2023-06-26T00:14:32;101073.94;;;25.71;55.10
65758;BME280;52495;52.208;5.158;2023-06-26T00:16:59;101071.91;;;25.64;55.48
65758;BME280;52495;52.208;5.158;2023-06-26T00:19:26;101066.97;;;25.59;55.76
65758;BME280;52495;52.208;5.158;2023-06-26T00:21:53;101061.34;;;25.52;55.96
65758;BME280;52495;52.208;5.158;2023-06-26T00:24:20;101061.19;;;25.54;55.96
65758;BME280;52495;52.208;5.158;2023-06-26T00:26:47;101061.47;;;25.51;56.36
65758;BME280;52495;52.208;5.158;2023-06-26T00:29:14;101055.44;;;25.49;56.46
65758;BME280;52495;52.208;5.158;2023-06-26T00:31:43;101048.56;;;25.46;56.39
65758;BME280;52495;52.208;5.158;2023-06-26T00:34:10;101046.41;;;25.40;56.35
65758;BME280;52495;52.208;5.158;2023-06-26T00:36:37;101051.91;;;25.37;56.83
65758;BME280;52495;52.208;5.158;2023-06-26T00:39:03;101039.53;;;25.37;56.92
65758;BME280;52495;52.208;5.158;2023-06-26T00:41:30;101048.69;;;25.33;57.18
65758;BME280;52495;52.208;5.158;2023-06-26T00:43:57;101051.66;;;25.28;57.18
65758;BME280;52495;52.208;5.158;2023-06-26T00:46:26;101054.53;;;25.25;57.58
65758;BME280;52495;52.208;5.158;2023-06-26T00:48:55;101064.47;;;25.22;58.20
65758;BME280;52495;52.208;5.158;2023-06-26T00:51:23;101063.06;;;25.18;58.00
65758;BME280;52495;52.208;5.158;2023-06-26T00:53:50;101078.28;;;25.14;58.09
65758;BME280;52495;52.208;5.158;2023-06-26T00:56:18;101074.53;;;25.05;58.56
65758;BME280;52495;52.208;5.158;2023-06-26T00:58:45;101092.97;;;24.82;58.56
65758;BME280;52495;52.208;5.158;2023-06-26T01:01:12;101086.56;;;24.74;57.96
65758;BME280;52495;52.208;5.158;2023-06-26T01:03:43;101095.06;;;24.53;58.55
65758;BME280;52495;52.208;5.158;2023-06-26T01:06:14;101095.09;;;24.40;59.02
65758;BME280;52495;52.208;5.158;2023-06-26T01:08:41;101093.13;;;24.31;59.18
65758;BME280;52495;52.208;5.158;2023-06-26T01:11:08;101098.41;;;24.31;59.34
65758;BME280;52495;52.208;5.158;2023-06-26T01:13:35;101099.97;;;24.33;59.51
65758;BME280;52495;52.208;5.158;2023-06-26T01:16:04;101108.84;;;24.19;60.57
65758;BME280;52495;52.208;5.158;2023-06-26T01:18:32;101110.88;;;24.16;60.87
65758;BME280;52495;52.208;5.158;2023-06-26T01:21:00;101106.69;;;24.00;61.55
65758;BME280;52495;52.208;5.158;2023-06-26T01:23:37;101116.88;;;23.92;62.16
65758;BME280;52495;52.208;5.158;2023-06-26T01:26:17;101124.63;;;23.82;63.26
65758;BME280;52495;52.208;5.158;2023-06-26T01:28:45;101120.69;;;23.62;63.72
65758;BME280;52495;52.208;5.158;2023-06-26T01:31:14;101126.28;;;23.70;62.77
65758;BME280;52495;52.208;5.158;2023-06-26T01:33:41;101120.81;;;23.60;63.03
65758;BME280;52495;52.208;5.158;2023-06-26T01:36:09;101126.06;;;23.60;63.24
65758;BME280;52495;52.208;5.158;2023-06-26T01:38:36;101122.47;;;23.48;63.75
65758;BME280;52495;52.208;5.158;2023-06-26T01:41:03;101120.66;;;23.49;63.68
65758;BME280;52495;52.208;5.158;2023-06-26T01:43:38;101118.34;;;23.44;63.54
65758;BME280;52495;52.208;5.158;2023-06-26T01:46:11;101116.66;;;23.43;63.48
65758;BME280;52495;52.208;5.158;2023-06-26T01:48:47;101111.41;;;23.16;64.55
65758;BME280;52495;52.208;5.158;2023-06-26T01:51:17;101110.03;;;23.10;65.18
65758;BME280;52495;52.208;5.158;2023-06-26T01:53:51;101110.03;;;23.10;65.22
65758;BME280;52495;52.208;5.158;2023-06-26T01:56:21;101118.38;;;23.04;65.02
65758;BME280;52495;52.208;5.158;2023-06-26T01:58:53;101125.84;;;22.83;65.93
65758;BME280;52495;52.208;5.158;2023-06-26T02:01:21;101123.53;;;22.78;65.75
65758;BME280;52495;52.208;5.158;2023-06-26T02:03:48;101135.09;;;22.76;66.29
65758;BME280;52495;52.208;5.158;2023-06-26T02:06:15;101124.50;;;22.63;67.15
65758;BME280;52495;52.208;5.158;2023-06-26T02:08:42;101123.63;;;22.77;66.72
65758;BME280;52495;52.208;5.158;2023-06-26T02:11:08;101121.03;;;22.89;66.12
65758;BME280;52495;52.208;5.158;2023-06-26T02:13:35;101108.16;;;22.85;66.86
65758;BME280;52495;52.208;5.158;2023-06-26T02:16:03;101112.09;;;22.65;68.34
65758;BME280;52495;52.208;5.158;2023-06-26T02:18:30;101118.88;;;22.69;67.85
65758;BME280;52495;52.208;5.158;2023-06-26T02:20:57;101120.25;;;22.74;67.80
65758;BME280;52495;52.208;5.158;2023-06-26T02:23:24;101131.91;;;22.70;67.82
65758;BME280;52495;52.208;5.158;2023-06-26T02:25:50;101130.38;;;22.53;68.89
65758;BME280;52495;52.208;5.158;2023-06-26T02:28:17;101123.41;;;22.52;68.97
65758;BME280;52495;52.208;5.158;2023-06-26T02:30:44;101123.31;;;22.39;69.44
65758;BME280;52495;52.208;5.158;2023-06-26T02:33:12;101144.94;;;22.45;69.12
65758;BME280;52495;52.208;5.158;2023-06-26T02:35:39;101136.47;;;22.25;70.11
65758;BME280;52495;52.208;5.158;2023-06-26T02:38:05;101142.75;;;22.22;70.46
65758;BME280;52495;52.208;5.158;2023-06-26T02:40:32;101129.34;;;22.27;70.02
65758;BME280;52495;52.208;5.158;2023-06-26T02:43:01;101136.94;;;21.88;71.77
65758;BME280;52495;52.208;5.158;2023-06-26T02:45:27;101135.53;;;21.97;71.43
65758;BME280;52495;52.208;5.158;2023-06-26T02:47:54;101146.72;;;22.01;71.64
65758;BME280;52495;52.208;5.158;2023-06-26T02:50:22;101139.38;;;21.91;71.96
65758;BME280;52495;52.208;5.158;2023-06-26T02:53:07;101148.13;;;21.77;72.63
65758;BME280;52495;52.208;5.158;2023-06-26T02:55:37;101155.59;;;21.69;73.40
65758;BME280;52495;52.208;5.158;2023-06-26T02:58:03;101151.97;;;21.56;73.90
65758;BME280;52495;52.208;5.158;2023-06-26T03:00:31;101145.19;;;21.67;73.53
65758;BME280;52495;52.208;5.158;2023-06-26T03:03:01;101158.94;;;21.57;74.34
65758;BME280;52495;52.208;5.158;2023-06-26T03:05:31;101161.31;;;21.45;74.90
65758;BME280;52495;52.208;5.158;2023-06-26T03:07:58;101154.28;;;21.46;75.01
65758;BME280;52495;52.208;5.158;2023-06-26T03:10:25;101152.78;;;21.42;75.42
65758;BME280;52495;52.208;5.158;2023-06-26T03:12:52;101156.13;;;21.29;75.50
65758;BME280;52495;52.208;5.158;2023-06-26T03:15:19;101157.72;;;21.32;75.84
65758;BME280;52495;52.208;5.158;2023-06-26T03:17:46;101173.56;;;21.30;76.11
65758;BME280;52495;52.208;5.158;2023-06-26T03:20:19;101167.06;;;21.21;76.61
65758;BME280;52495;52.208;5.158;2023-06-26T03:22:58;101180.97;;;21.23;76.55
65758;BME280;52495;52.208;5.158;2023-06-26T03:25:25;101169.84;;;21.34;76.17
65758;BME280;52495;52.208;5.158;2023-06-26T03:28:12;101179.38;;;21.35;75.82
65758;BME280;52495;52.208;5.158;2023-06-26T03:30:39;101171.09;;;21.43;75.70
65758;BME280;52495;52.208;5.158;2023-06-26T03:33:06;101185.59;;;21.34;76.13
65758;BME280;52495;52.208;5.158;2023-06-26T03:35:33;101191.09;;;21.30;76.24
65758;BME280;52495;52.208;5.158;2023-06-26T03:38:04;101197.06;;;21.17;77.32
65758;BME280;52495;52.208;5.158;2023-06-26T03:40:32;101203.06;;;21.19;77.02
65758;BME280;52495;52.208;5.158;2023-06-26T03:42:58;101196.13;;;21.02;78.08
65758;BME280;52495;52.208;5.158;2023-06-26T03:45:25;101199.09;;;20.80;79.60
65758;BME280;52495;52.208;5.158;2023-06-26T03:47:54;101204.50;;;20.93;78.69
65758;BME280;52495;52.208;5.158;2023-06-26T03:50:20;101198.16;;;20.81;79.25
65758;BME280;52495;52.208;5.158;2023-06-26T03:52:47;101205.19;;;20.81;79.30
65758;BME280;52495;52.208;5.158;2023-06-26T03:55:17;101218.72;;;20.73;79.59
65758;BME280;52495;52.208;5.158;2023-06-26T03:57:44;101217.41;;;20.82;79.28
65758;BME280;52495;52.208;5.158;2023-06-26T04:00:13;101210.03;;;20.88;78.68
65758;BME280;52495;52.208;5.158;2023-06-26T04:02:40;101211.63;;;20.91;78.03
65758;BME280;52495;52.208;5.158;2023-06-26T04:05:08;101218.13;;;20.84;78.72
65758;BME280;52495;52.208;5.158;2023-06-26T04:07:34;101228.47;;;20.87;78.24
65758;BME280;52495;52.208;5.158;2023-06-26T04:10:01;101221.34;;;20.89;77.99
65758;BME280;52495;52.208;5.158;2023-06-26T04:12:30;101222.66;;;20.82;77.84
65758;BME280;52495;52.208;5.158;2023-06-26T04:14:56;101226.09;;;20.82;77.86
65758;BME280;52495;52.208;5.158;2023-06-26T04:17:23;101232.00;;;20.70;78.59
65758;BME280;52495;52.208;5.158;2023-06-26T04:19:50;101233.47;;;20.75;78.19
65758;BME280;52495;52.208;5.158;2023-06-26T04:22:16;101235.00;;;20.80;77.70
65758;BME280;52495;52.208;5.158;2023-06-26T04:24:43;101232.13;;;20.84;77.59
65758;BME280;52495;52.208;5.158;2023-06-26T04:27:11;101236.16;;;20.74;77.60
65758;BME280;52495;52.208;5.158;2023-06-26T04:29:41;101248.28;;;20.76;77.74
65758;BME280;52495;52.208;5.158;2023-06-26T04:32:07;101252.81;;;20.73;77.64
65758;BME280;52495;52.208;5.158;2023-06-26T04:34:34;101258.47;;;20.65;78.19
65758;BME280;52495;52.208;5.158;2023-06-26T04:37:06;101261.00;;;20.67;78.02
65758;BME280;52495;52.208;5.158;2023-06-26T04:39:35;101269.72;;;20.67;77.69
65758;BME280;52495;52.208;5.158;2023-06-26T04:42:04;101269.13;;;20.62;77.97
65758;BME280;52495;52.208;5.158;2023-06-26T04:44:30;101273.16;;;20.52;78.02
65758;BME280;52495;52.208;5.158;2023-06-26T04:46:58;101273.44;;;20.63;77.12
65758;BME280;52495;52.208;5.158;2023-06-26T04:49:25;101272.94;;;20.56;77.28
65758;BME280;52495;52.208;5.158;2023-06-26T04:51:53;101289.59;;;20.55;77.31
65758;BME280;52495;52.208;5.158;2023-06-26T04:54:20;101283.81;;;20.49;77.79
65758;BME280;52495;52.208;5.158;2023-06-26T04:56:46;101287.59;;;20.43;77.11
65758;BME280;52495;52.208;5.158;2023-06-26T04:59:13;101280.13;;;20.35;77.03
65758;BME280;52495;52.208;5.158;2023-06-26T05:01:40;101282.69;;;20.37;76.78
65758;BME280;52495;52.208;5.158;2023-06-26T05:04:08;101283.72;;;20.50;76.40
65758;BME280;52495;52.208;5.158;2023-06-26T05:06:35;101294.53;;;20.44;76.07
65758;BME280;52495;52.208;5.158;2023-06-26T05:09:02;101290.56;;;20.37;75.87
65758;BME280;52495;52.208;5.158;2023-06-26T05:11:29;101289.34;;;20.60;74.38
65758;BME280;52495;52.208;5.158;2023-06-26T05:13:56;101300.31;;;20.33;75.63
65758;BME280;52495;52.208;5.158;2023-06-26T05:16:22;101296.25;;;20.27;75.65
65758;BME280;52495;52.208;5.158;2023-06-26T05:18:49;101297.56;;;20.36;75.70
65758;BME280;52495;52.208;5.158;2023-06-26T05:21:18;101297.69;;;20.51;75.18
65758;BME280;52495;52.208;5.158;2023-06-26T05:23:45;101299.59;;;20.65;73.70
65758;BME280;52495;52.208;5.158;2023-06-26T05:26:13;101303.25;;;20.62;73.84
65758;BME280;52495;52.208;5.158;2023-06-26T05:28:41;101298.13;;;20.76;72.82
65758;BME280;52495;52.208;5.158;2023-06-26T05:31:10;101309.34;;;20.45;73.84
65758;BME280;52495;52.208;5.158;2023-06-26T05:33:37;101316.50;;;20.59;74.09
65758;BME280;52495;52.208;5.158;2023-06-26T05:36:07;101312.66;;;20.66;73.88
65758;BME280;52495;52.208;5.158;2023-06-26T05:38:37;101321.44;;;20.99;72.18
65758;BME280;52495;52.208;5.158;2023-06-26T05:41:04;101323.59;;;20.57;73.55
65758;BME280;52495;52.208;5.158;2023-06-26T05:43:31;101330.41;;;20.61;73.06
65758;BME280;52495;52.208;5.158;2023-06-26T05:45:57;101329.31;;;20.65;73.13
65758;BME280;52495;52.208;5.158;2023-06-26T05:48:24;101342.66;;;20.78;72.84
65758;BME280;52495;52.208;5.158;2023-06-26T05:50:51;101344.50;;;20.76;72.21
65758;BME280;52495;52.208;5.158;2023-06-26T05:53:19;101345.75;;;21.02;71.16
65758;BME280;52495;52.208;5.158;2023-06-26T05:55:47;101346.97;;;21.13;71.80
65758;BME280;52495;52.208;5.158;2023-06-26T05:58:14;101359.34;;;21.11;72.45
65758;BME280;52495;52.208;5.158;2023-06-26T06:00:43;101362.22;;;21.22;71.43
65758;BME280;52495;52.208;5.158;2023-06-26T06:03:10;101365.16;;;21.00;72.38
65758;BME280;52495;52.208;5.158;2023-06-26T06:05:37;101364.41;;;20.80;73.38
65758;BME280;52495;52.208;5.158;2023-06-26T06:08:04;101373.91;;;21.00;72.18
65758;BME280;52495;52.208;5.158;2023-06-26T06:10:31;101371.91;;;20.88;71.45
65758;BME280;52495;52.208;5.158;2023-06-26T06:12:59;101385.09;;;20.86;71.75
65758;BME280;52495;52.208;5.158;2023-06-26T06:15:25;101384.91;;;21.07;70.56
65758;BME280;52495;52.208;5.158;2023-06-26T06:17:52;101394.16;;;20.81;70.98
65758;BME280;52495;52.208;5.158;2023-06-26T06:20:19;101393.22;;;20.64;71.91
65758;BME280;52495;52.208;5.158;2023-06-26T06:22:46;101383.03;;;20.75;71.42
65758;BME280;52495;52.208;5.158;2023-06-26T06:25:14;101387.41;;;20.92;70.55
65758;BME280;52495;52.208;5.158;2023-06-26T06:27:41;101403.19;;;21.08;70.31
65758;BME280;52495;52.208;5.158;2023-06-26T06:30:10;101412.56;;;21.30;69.65
65758;BME280;52495;52.208;5.158;2023-06-26T06:32:37;101405.56;;;20.97;71.51
65758;BME280;52495;52.208;5.158;2023-06-26T06:35:05;101430.66;;;21.19;70.99
65758;BME280;52495;52.208;5.158;2023-06-26T06:37:35;101428.03;;;21.19;71.65
65758;BME280;52495;52.208;5.158;2023-06-26T06:40:02;101433.38;;;21.17;72.20
65758;BME280;52495;52.208;5.158;2023-06-26T06:42:31;101450.03;;;21.00;72.65
65758;BME280;52495;52.208;5.158;2023-06-26T06:44:58;101442.91;;;20.85;73.14
65758;BME280;52495;52.208;5.158;2023-06-26T06:47:26;101451.56;;;20.87;73.88
65758;BME280;52495;52.208;5.158;2023-06-26T06:49:53;101431.81;;;20.80;74.18
65758;BME280;52495;52.208;5.158;2023-06-26T06:52:19;101436.69;;;20.87;73.85
65758;BME280;52495;52.208;5.158;2023-06-26T06:54:53;101444.84;;;20.81;74.19
65758;BME280;52495;52.208;5.158;2023-06-26T06:57:20;101451.53;;;20.69;74.49
65758;BME280;52495;52.208;5.158;2023-06-26T06:59:47;101459.72;;;20.63;75.15
65758;BME280;52495;52.208;5.158;2023-06-26T07:02:14;101458.66;;;20.85;74.14
65758;BME280;52495;52.208;5.158;2023-06-26T07:04:43;101465.47;;;20.89;73.66
65758;BME280;52495;52.208;5.158;2023-06-26T07:07:10;101461.59;;;20.96;72.85
65758;BME280;52495;52.208;5.158;2023-06-26T07:09:36;101460.66;;;21.15;72.64
65758;BME280;52495;52.208;5.158;2023-06-26T07:12:04;101462.94;;;21.21;71.66
65758;BME280;52495;52.208;5.158;2023-06-26T07:14:31;101463.19;;;21.16;71.99
65758;BME280;52495;52.208;5.158;2023-06-26T07:16:57;101462.34;;;21.16;71.83
65758;BME280;52495;52.208;5.158;2023-06-26T07:19:24;101471.88;;;21.01;71.93
65758;BME280;52495;52.208;5.158;2023-06-26T07:21:52;101474.56;;;20.99;71.80
65758;BME280;52495;52.208;5.158;2023-06-26T07:24:19;101472.25;;;20.93;72.15
65758;BME280;52495;52.208;5.158;2023-06-26T07:26:46;101467.78;;;20.95;72.35
65758;BME280;52495;52.208;5.158;2023-06-26T07:29:12;101470.13;;;21.17;71.84
65758;BME280;52495;52.208;5.158;2023-06-26T07:31:39;101479.88;;;20.98;71.40
65758;BME280;52495;52.208;5.158;2023-06-26T07:34:06;101482.41;;;21.34;69.98
65758;BME280;52495;52.208;5.158;2023-06-26T07:36:33;101482.72;;;21.28;70.68
65758;BME280;52495;52.208;5.158;2023-06-26T07:39:01;101481.53;;;21.34;69.33
65758;BME280;52495;52.208;5.158;2023-06-26T07:41:27;101488.34;;;21.38;69.52
65758;BME280;52495;52.208;5.158;2023-06-26T07:43:56;101488.84;;;21.62;67.92
65758;BME280;52495;52.208;5.158;2023-06-26T07:46:23;101491.75;;;21.56;68.13
65758;BME280;52495;52.208;5.158;2023-06-26T07:48:50;101496.94;;;21.58;68.93
65758;BME280;52495;52.208;5.158;2023-06-26T07:51:17;101503.59;;;21.65;67.76
65758;BME280;52495;52.208;5.158;2023-06-26T07:53:43;101509.72;;;21.65;67.13
65758;BME280;52495;52.208;5.158;2023-06-26T07:56:11;101508.84;;;21.47;67.49
65758;BME280;52495;52.208;5.158;2023-06-26T07:58:38;101507.41;;;21.42;67.93
65758;BME280;52495;52.208;5.158;2023-06-26T08:01:05;101508.09;;;21.45;68.79
65758;BME280;52495;52.208;5.158;2023-06-26T08:03:32;101502.41;;;21.53;68.32
65758;BME280;52495;52.208;5.158;2023-06-26T08:05:59;101511.00;;;21.05;69.15
65758;BME280;52495;52.208;5.158;2023-06-26T08:08:25;101520.72;;;21.21;68.22
65758;BME280;52495;52.208;5.158;2023-06-26T08:10:52;101517.28;;;21.36;67.25
65758;BME280;52495;52.208;5.158;2023-06-26T08:13:20;101525.56;;;21.29;67.37
65758;BME280;52495;52.208;5.158;2023-06-26T08:15:47;101527.22;;;21.14;67.16
65758;BME280;52495;52.208;5.158;2023-06-26T08:18:14;101529.75;;;21.15;67.38
65758;BME280;52495;52.208;5.158;2023-06-26T08:20:40;101540.66;;;21.25;67.01
65758;BME280;52495;52.208;5.158;2023-06-26T08:23:07;101537.59;;;21.17;66.95
65758;BME280;52495;52.208;5.158;2023-06-26T08:25:34;101549.84;;;20.99;67.30
65758;BME280;52495;52.208;5.158;2023-06-26T08:28:01;101534.56;;;21.07;67.37
65758;BME280;52495;52.208;5.158;2023-06-26T08:30:32;101537.88;;;21.28;65.61
65758;BME280;52495;52.208;5.158;2023-06-26T08:32:59;101545.50;;;21.33;65.78
65758;BME280;52495;52.208;5.158;2023-06-26T08:35:26;101541.91;;;21.69;63.73
65758;BME280;52495;52.208;5.158;2023-06-26T08:37:52;101544.44;;;21.37;65.53
65758;BME280;52495;52.208;5.158;2023-06-26T08:40:21;101548.50;;;21.60;64.94
65758;BME280;52495;52.208;5.158;2023-06-26T08:42:48;101548.91;;;21.35;65.04
65758;BME280;52495;52.208;5.158;2023-06-26T08:45:18;101555.03;;;21.00;66.23
65758;BME280;52495;52.208;5.158;2023-06-26T08:47:48;101559.91;;;21.26;64.99
65758;BME280;52495;52.208;5.158;2023-06-26T08:50:20;101554.16;;;21.17;65.22
65758;BME280;52495;52.208;5.158;2023-06-26T08:52:53;101562.03;;;21.35;65.36
65758;BME280;52495;52.208;5.158;2023-06-26T08:55:23;101572.25;;;21.06;64.95
65758;BME280;52495;52.208;5.158;2023-06-26T08:57:53;101567.69;;;21.27;64.11
65758;BME280;52495;52.208;5.158;2023-06-26T09:00:20;101569.84;;;21.19;64.32
65758;BME280;52495;52.208;5.158;2023-06-26T09:02:48;101575.56;;;21.45;64.02
65758;BME280;52495;52.208;5.158;2023-06-26T09:05:15;101586.19;;;21.59;62.72
65758;BME280;52495;52.208;5.158;2023-06-26T09:07:42;101578.44;;;21.22;62.75
65758;BME280;52495;52.208;5.158;2023-06-26T09:10:09;101583.53;;;21.08;63.08
65758;BME280;52495;52.208;5.158;2023-06-26T09:12:36;101582.28;;;21.15;63.14
65758;BME280;52495;52.208;5.158;2023-06-26T09:15:05;101591.56;;;21.40;62.60
65758;BME280;52495;52.208;5.158;2023-06-26T09:17:38;101593.03;;;21.46;61.70
65758;BME280;52495;52.208;5.158;2023-06-26T09:20:07;101584.44;;;21.60;61.51
65758;BME280;52495;52.208;5.158;2023-06-26T09:22:37;101591.34;;;21.62;60.56
65758;BME280;52495;52.208;5.158;2023-06-26T09:25:05;101599.19;;;21.80;59.67
65758;BME280;52495;52.208;5.158;2023-06-26T09:27:33;101599.19;;;21.80;59.88
65758;BME280;52495;52.208;5.158;2023-06-26T09:30:01;101602.34;;;21.51;60.01
65758;BME280;52495;52.208;5.158;2023-06-26T09:32:28;101607.63;;;21.51;60.30
65758;BME280;52495;52.208;5.158;2023-06-26T09:34:55;101601.97;;;21.59;59.00
65758;BME280;52495;52.208;5.158;2023-06-26T09:37:23;101611.66;;;21.76;58.54
65758;BME280;52495;52.208;5.158;2023-06-26T09:39:51;101603.47;;;21.98;58.45
65758;BME280;52495;52.208;5.158;2023-06-26T09:42:19;101613.72;;;21.70;59.56
65758;BME280;52495;52.208;5.158;2023-06-26T09:44:46;101620.34;;;21.94;57.57
65758;BME280;52495;52.208;5.158;2023-06-26T09:47:15;101623.13;;;21.91;57.24
65758;BME280;52495;52.208;5.158;2023-06-26T09:49:43;101619.19;;;22.16;57.18
65758;BME280;52495;52.208;5.158;2023-06-26T09:52:13;101626.75;;;21.89;57.12
65758;BME280;52495;52.208;5.158;2023-06-26T09:54:42;101627.34;;;21.60;57.82
65758;BME280;52495;52.208;5.158;2023-06-26T09:57:11;101637.53;;;21.84;57.54
65758;BME280;52495;52.208;5.158;2023-06-26T09:59:39;101645.69;;;21.95;54.73
65758;BME280;52495;52.208;5.158;2023-06-26T10:02:06;101653.59;;;21.25;56.24
65758;BME280;52495;52.208;5.158;2023-06-26T10:04:33;101645.31;;;21.15;56.96
65758;BME280;52495;52.208;5.158;2023-06-26T10:07:02;101646.47;;;21.27;57.46
65758;BME280;52495;52.208;5.158;2023-06-26T10:09:31;101664.91;;;20.90;56.20
65758;BME280;52495;52.208;5.158;2023-06-26T10:12:02;101666.97;;;21.01;55.53
65758;BME280;52495;52.208;5.158;2023-06-26T10:14:32;101662.94;;;21.31;56.16
65758;BME280;52495;52.208;5.158;2023-06-26T10:17:01;101657.47;;;21.71;55.39
65758;BME280;52495;52.208;5.158;2023-06-26T10:19:32;101653.44;;;21.98;55.23
65758;BME280;52495;52.208;5.158;2023-06-26T10:22:01;101672.88;;;22.12;53.36
65758;BME280;52495;52.208;5.158;2023-06-26T10:24:29;101666.56;;;21.98;54.04
65758;BME280;52495;52.208;5.158;2023-06-26T10:27:03;101675.38;;;21.97;55.03
65758;BME280;52495;52.208;5.158;2023-06-26T10:29:30;101696.31;;;22.17;53.72
65758;BME280;52495;52.208;5.158;2023-06-26T10:31:58;101687.75;;;21.95;54.33
65758;BME280;52495;52.208;5.158;2023-06-26T10:34:26;101675.22;;;22.01;54.19
65758;BME280;52495;52.208;5.158;2023-06-26T10:36:59;101681.59;;;21.79;54.68
65758;BME280;52495;52.208;5.158;2023-06-26T10:39:26;101687.63;;;21.81;53.69
65758;BME280;52495;52.208;5.158;2023-06-26T10:41:54;101676.56;;;21.92;54.50
65758;BME280;52495;52.208;5.158;2023-06-26T10:44:23;101685.81;;;21.46;55.39
65758;BME280;52495;52.208;5.158;2023-06-26T10:46:50;101680.66;;;21.80;55.66
65758;BME280;52495;52.208;5.158;2023-06-26T10:49:18;101684.34;;;21.93;55.12
65758;BME280;52495;52.208;5.158;2023-06-26T10:51:49;101687.22;;;21.89;55.09
65758;BME280;52495;52.208;5.158;2023-06-26T10:54:17;101688.13;;;22.05;53.70
65758;BME280;52495;52.208;5.158;2023-06-26T10:56:45;101685.94;;;22.13;54.16
65758;BME280;52495;52.208;5.158;2023-06-26T10:59:16;101680.09;;;22.24;52.34
65758;BME280;52495;52.208;5.158;2023-06-26T11:01:46;101691.53;;;22.07;51.17
65758;BME280;52495;52.208;5.158;2023-06-26T11:04:14;101713.97;;;21.97;52.05
65758;BME280;52495;52.208;5.158;2023-06-26T11:06:45;101703.00;;;22.22;51.14
65758;BME280;52495;52.208;5.158;2023-06-26T11:09:17;101702.78;;;22.45;51.67
65758;BME280;52495;52.208;5.158;2023-06-26T11:11:58;101704.66;;;22.25;52.45
65758;BME280;52495;52.208;5.158;2023-06-26T11:14:27;101697.84;;;22.70;51.73
65758;BME280;52495;52.208;5.158;2023-06-26T11:16:56;101694.72;;;22.80;51.16
65758;BME280;52495;52.208;5.158;2023-06-26T11:19:26;101703.03;;;22.72;49.55
65758;BME280;52495;52.208;5.158;2023-06-26T11:21:58;101715.63;;;22.67;47.00
65758;BME280;52495;52.208;5.158;2023-06-26T11:24:26;101720.81;;;22.84;48.19
65758;BME280;52495;52.208;5.158;2023-06-26T11:26:53;101720.38;;;22.92;47.86
65758;BME280;52495;52.208;5.158;2023-06-26T11:29:19;101733.13;;;23.00;48.09
65758;BME280;52495;52.208;5.158;2023-06-26T11:31:46;101732.59;;;22.77;49.64
65758;BME280;52495;52.208;5.158;2023-06-26T11:34:14;101716.69;;;22.63;49.88
65758;BME280;52495;52.208;5.158;2023-06-26T11:36:41;101738.53;;;22.65;48.90
65758;BME280;52495;52.208;5.158;2023-06-26T11:39:11;101752.03;;;22.41;50.59
65758;BME280;52495;52.208;5.158;2023-06-26T11:41:39;101740.31;;;22.64;50.33
65758;BME280;52495;52.208;5.158;2023-06-26T11:44:08;101735.19;;;22.45;50.62
65758;BME280;52495;52.208;5.158;2023-06-26T11:46:36;101753.28;;;22.51;50.14
65758;BME280;52495;52.208;5.158;2023-06-26T11:49:03;101755.16;;;22.49;50.29
65758;BME280;52495;52.208;5.158;2023-06-26T11:51:32;101766.47;;;22.16;50.34
65758;BME280;52495;52.208;5.158;2023-06-26T11:54:01;101765.06;;;22.26;49.84
65758;BME280;52495;52.208;5.158;2023-06-26T11:56:28;101764.59;;;22.53;49.83
65758;BME280;52495;52.208;5.158;2023-06-26T11:58:56;101776.41;;;22.62;49.53
65758;BME280;52495;52.208;5.158;2023-06-26T12:01:24;101762.28;;;22.47;49.00
65758;BME280;52495;52.208;5.158;2023-06-26T12:03:58;101787.19;;;22.05;50.19
65758;BME280;52495;52.208;5.158;2023-06-26T12:06:25;101773.88;;;22.25;48.95
65758;BME280;52495;52.208;5.158;2023-06-26T12:08:53;101781.41;;;21.98;50.62
65758;BME280;52495;52.208;5.158;2023-06-26T12:11:22;101792.94;;;21.95;50.94
65758;BME280;52495;52.208;5.158;2023-06-26T12:13:50;101797.50;;;21.74;51.16
65758;BME280;52495;52.208;5.158;2023-06-26T12:16:18;101789.16;;;22.01;51.29
65758;BME280;52495;52.208;5.158;2023-06-26T12:18:45;101784.28;;;22.11;51.29
65758;BME280;52495;52.208;5.158;2023-06-26T12:21:33;101783.97;;;22.17;50.76
65758;BME280;52495;52.208;5.158;2023-06-26T12:24:13;101788.34;;;22.17;50.47
65758;BME280;52495;52.208;5.158;2023-06-26T12:26:42;101801.44;;;22.18;50.48
65758;BME280;52495;52.208;5.158;2023-06-26T12:29:11;101798.97;;;22.15;51.60
65758;BME280;52495;52.208;5.158;2023-06-26T12:31:40;101803.91;;;22.21;51.59
65758;BME280;52495;52.208;5.158;2023-06-26T12:34:12;101803.75;;;22.07;51.45
65758;BME280;52495;52.208;5.158;2023-06-26T12:36:40;101799.13;;;21.94;51.21
65758;BME280;52495;52.208;5.158;2023-06-26T12:39:09;101819.69;;;21.86;51.22
65758;BME280;52495;52.208;5.158;2023-06-26T12:41:46;101823.97;;;21.70;51.95
65758;BME280;52495;52.208;5.158;2023-06-26T12:44:20;101816.41;;;21.63;52.41
65758;BME280;52495;52.208;5.158;2023-06-26T12:46:48;101813.69;;;21.65;52.35
65758;BME280;52495;52.208;5.158;2023-06-26T12:49:15;101816.13;;;21.87;53.16
65758;BME280;52495;52.208;5.158;2023-06-26T12:51:43;101829.94;;;21.54;52.08
65758;BME280;52495;52.208;5.158;2023-06-26T12:54:10;101822.00;;;21.92;52.39
65758;BME280;52495;52.208;5.158;2023-06-26T12:56:37;101822.66;;;22.15;51.99